Time;durP1;ratioP1;P1;durP2;ratioP2;P2;SDS_P1;SDS_P2;PMS_P1;PMS_P2;Temp;Humidity;BMP_temperature;BMP_pressure;BME280_temperature;BME280_humidity;BME280_pressure;Samples;Min_cycle;Max_cycle;Signal;HPM_P1;HPM_P2
2022/02/04 00:20:30;;;;;;;;;;;6.80;99.90;;;;;;6185425;23;19920;-85
2022/02/04 00:23:10;;;;;;;;;;;6.70;99.90;;;;;;6206013;23;19920;-89
2022/02/04 00:28:17;;;;;;;;;;;6.80;99.90;;;;;;6184465;23;19955;-84
2022/02/04 00:30:48;;;;;;;;;;;6.70;99.90;;;;;;6180274;23;20002;-87
2022/02/04 00:33:15;;;;;;;;;;;6.80;99.90;;;;;;6158822;23;20358;-87
2022/02/04 00:40:40;;;;;;;;;;;6.70;99.90;;;;;;6212466;23;19951;-83
2022/02/04 00:43:09;;;;;;;;;;;6.80;99.90;;;;;;6158632;23;19923;-82
2022/02/04 00:45:45;;;;;;;;;;;6.80;99.90;;;;;;6158076;23;19916;-84
2022/02/04 00:51:02;;;;;;;;;;;6.80;99.90;;;;;;6205635;23;19951;-86
2022/02/04 00:53:49;;;;;;;;;;;6.80;99.90;;;;;;6204937;23;20419;-86
2022/02/04 00:56:34;;;;;;;;;;;6.80;99.90;;;;;;6157384;23;20268;-87
2022/02/04 01:26:10;;;;;;;;;;;6.50;99.90;;;;;;6205878;23;20444;-85
2022/02/04 01:28:37;;;;;;;;;;;6.50;99.90;;;;;;6152144;23;19916;-88
2022/02/04 01:31:03;;;;;;;;;;;6.50;99.90;;;;;;6151476;23;19924;-82
2022/02/04 01:33:29;;;;;;;;;;;6.40;99.90;;;;;;6177665;23;19920;-84
2022/02/04 01:35:55;;;;;;;;;;;6.40;99.90;;;;;;6152476;23;19935;-85
2022/02/04 01:38:22;;;;;;;;;;;6.40;99.90;;;;;;6178786;23;19916;-83
2022/02/04 01:40:48;;;;;;;;;;;6.40;99.90;;;;;;6179621;23;19924;-86
2022/02/04 01:43:16;;;;;;;;;;;6.40;99.90;;;;;;6156541;23;19916;-83
2022/02/04 01:45:42;;;;;;;;;;;6.30;99.90;;;;;;6155070;23;19926;-86
2022/02/04 01:48:08;;;;;;;;;;;6.40;99.90;;;;;;6151620;23;20329;-84
2022/02/04 01:50:34;;;;;;;;;;;6.40;99.90;;;;;;6210860;23;19915;-86
2022/02/04 01:53:00;;;;;;;;;;;6.40;99.90;;;;;;6175934;23;20515;-86
2022/02/04 01:55:26;;;;;;;;;;;6.40;99.90;;;;;;6204984;23;19916;-86
2022/02/04 01:57:52;;;;;;;;;;;6.40;99.90;;;;;;6176176;23;20333;-86
2022/02/04 02:00:18;;;;;;;;;;;6.40;99.90;;;;;;6152826;23;19956;-84
2022/02/04 02:02:43;;;;;;;;;;;6.50;99.90;;;;;;6177460;23;20220;-84
2022/02/04 02:05:09;;;;;;;;;;;6.40;99.90;;;;;;6154935;23;19942;-82
2022/02/04 02:07:44;;;;;;;;;;;6.50;99.90;;;;;;6151217;23;20261;-82
2022/02/04 02:10:13;;;;;;;;;;;6.40;99.90;;;;;;6177919;23;20423;-82
2022/02/04 02:12:50;;;;;;;;;;;6.50;99.90;;;;;;6150212;23;19924;-82
2022/02/04 02:15:28;;;;;;;;;;;6.50;99.90;;;;;;6155397;23;20286;-82
2022/02/04 02:47:41;;;;;;;;;;;6.60;99.90;;;;;;6181825;23;20284;-84
2022/02/04 02:50:43;;;;;;;;;;;6.60;99.90;;;;;;6155133;23;20475;-84
2022/02/04 02:53:38;;;;;;;;;;;6.60;99.90;;;;;;6182457;23;19959;-85
2022/02/04 02:56:58;;;;;;;;;;;6.60;99.90;;;;;;6180406;23;19951;-86
2022/02/04 02:59:06;;;;;;;;;;;6.60;99.90;;;;;;6195207;23;19916;-86
2022/02/04 03:01:32;;;;;;;;;;;6.60;99.90;;;;;;6178890;23;19938;-87
2022/02/04 03:04:02;;;;;;;;;;;6.60;99.90;;;;;;6153406;23;19924;-84
2022/02/04 03:06:27;;;;;;;;;;;6.70;99.90;;;;;;6175696;23;19920;-86
2022/02/04 03:08:53;;;;;;;;;;;6.70;99.90;;;;;;6176970;23;20363;-84
2022/02/04 03:11:19;;;;;;;;;;;6.70;99.90;;;;;;6151882;23;19920;-82
2022/02/04 03:13:44;;;;;;;;;;;6.70;99.90;;;;;;6150004;23;19934;-85
2022/02/04 03:16:13;;;;;;;;;;;6.70;99.90;;;;;;6147649;23;19916;-85
2022/02/04 03:18:42;;;;;;;;;;;6.80;99.90;;;;;;6151971;23;19916;-81
2022/02/04 03:21:13;;;;;;;;;;;6.80;99.90;;;;;;6173862;23;20002;-84
2022/02/04 03:23:42;;;;;;;;;;;6.90;99.90;;;;;;6152610;23;19930;-87
2022/02/04 03:26:20;;;;;;;;;;;6.90;99.90;;;;;;6177935;23;19919;-86
2022/02/04 03:28:45;;;;;;;;;;;6.90;99.90;;;;;;6155815;23;19917;-85
2022/02/04 03:31:11;;;;;;;;;;;7.00;99.90;;;;;;6200392;23;20304;-82
2022/02/04 03:33:37;;;;;;;;;;;7.00;99.90;;;;;;6179768;23;19966;-85
2022/02/04 03:36:04;;;;;;;;;;;7.00;99.90;;;;;;6154335;23;19934;-84
2022/02/04 03:38:29;;;;;;;;;;;7.10;99.90;;;;;;6174320;23;20050;-84
2022/02/04 03:40:55;;;;;;;;;;;7.00;99.90;;;;;;6153321;23;19924;-86
2022/02/04 03:43:20;;;;;;;;;;;7.10;99.90;;;;;;6178380;23;20331;-85
2022/02/04 03:45:46;;;;;;;;;;;7.10;99.90;;;;;;6148924;23;19926;-82
2022/02/04 03:48:12;;;;;;;;;;;7.10;99.90;;;;;;6174817;23;19995;-84
2022/02/04 03:50:37;;;;;;;;;;;7.10;99.90;;;;;;6152615;23;19994;-82
2022/02/04 03:53:03;;;;;;;;;;;7.10;99.90;;;;;;6149399;23;19964;-85
2022/02/04 03:55:29;;;;;;;;;;;7.20;99.90;;;;;;6149818;23;20250;-85
2022/02/04 03:57:55;;;;;;;;;;;7.20;99.90;;;;;;6178576;23;19923;-84
2022/02/04 04:00:20;;;;;;;;;;;7.20;99.90;;;;;;6175343;23;19916;-85
2022/02/04 04:02:47;;;;;;;;;;;7.20;99.90;;;;;;6149698;23;20116;-82
2022/02/04 04:05:13;;;;;;;;;;;7.20;99.90;;;;;;6174442;23;19919;-84
2022/02/04 04:07:44;;;;;;;;;;;7.20;99.90;;;;;;6174281;23;19999;-83
2022/02/04 04:10:14;;;;;;;;;;;7.20;99.90;;;;;;6182606;23;19916;-83
2022/02/04 04:12:40;;;;;;;;;;;7.20;99.90;;;;;;6173890;23;19924;-85
2022/02/04 04:15:08;;;;;;;;;;;7.20;99.90;;;;;;6149523;23;19916;-84
2022/02/04 04:17:52;;;;;;;;;;;7.10;99.90;;;;;;6148203;23;19970;-84
2022/02/04 04:20:18;;;;;;;;;;;7.10;99.90;;;;;;6150943;23;20269;-84
2022/02/04 04:22:45;;;;;;;;;;;7.20;99.90;;;;;;6172566;23;19927;-85
2022/02/04 04:25:11;;;;;;;;;;;7.20;99.90;;;;;;6149517;23;19928;-84
2022/02/04 04:27:37;;;;;;;;;;;7.20;99.90;;;;;;6149113;23;20337;-84
2022/02/04 04:30:03;;;;;;;;;;;7.20;99.90;;;;;;6149548;23;19994;-84
2022/02/04 04:32:29;;;;;;;;;;;7.20;99.90;;;;;;6177851;23;19923;-84
2022/02/04 04:34:55;;;;;;;;;;;7.20;99.90;;;;;;6173279;23;19920;-86
2022/02/04 04:37:22;;;;;;;;;;;7.20;99.90;;;;;;6151595;23;19916;-81
2022/02/04 04:40:17;;;;;;;;;;;7.20;99.90;;;;;;6176574;23;19962;-85
2022/02/04 04:43:05;;;;;;;;;;;7.20;99.90;;;;;;6182909;23;19915;-86
2022/02/04 05:27:20;;;;;;;;;;;7.40;99.90;;;;;;6201371;23;19920;-85
2022/02/04 05:29:24;;;;;;;;;;;7.40;99.90;;;;;;6201048;23;19942;-86
2022/02/04 05:31:49;;;;;;;;;;;7.40;99.90;;;;;;6176753;23;20360;-84
2022/02/04 05:34:17;;;;;;;;;;;7.50;99.90;;;;;;6200650;23;19947;-86
2022/02/04 05:36:45;;;;;;;;;;;7.50;99.90;;;;;;6151031;23;19920;-85
2022/02/04 05:39:13;;;;;;;;;;;7.50;99.90;;;;;;6153055;23;19924;-85
2022/02/04 05:41:43;;;;;;;;;;;7.50;99.90;;;;;;6150788;23;19916;-85
2022/02/04 05:44:11;;;;;;;;;;;7.50;99.90;;;;;;6178191;23;19924;-85
2022/02/04 05:46:50;;;;;;;;;;;7.50;99.90;;;;;;6155048;23;19916;-84
2022/02/04 05:49:18;;;;;;;;;;;7.50;99.90;;;;;;6181620;23;19916;-85
2022/02/04 05:51:57;;;;;;;;;;;7.50;99.90;;;;;;6153478;23;20419;-85
2022/02/04 05:54:50;;;;;;;;;;;7.50;99.90;;;;;;6159930;23;19924;-87
2022/02/04 05:57:25;;;;;;;;;;;7.50;99.90;;;;;;6206371;23;19981;-87
2022/02/04 06:05:23;;;;;;;;;;;7.50;99.90;;;;;;6199838;23;20254;-85
2022/02/04 06:08:16;;;;;;;;;;;7.50;99.90;;;;;;6203623;23;20284;-88
2022/02/04 06:24:00;;;;;;;;;;;7.50;99.90;;;;;;6180824;23;19916;-86
2022/02/04 06:26:26;;;;;;;;;;;7.50;99.90;;;;;;6200959;23;19916;-86
2022/02/04 06:28:52;;;;;;;;;;;7.50;99.90;;;;;;6156201;23;19916;-85
2022/02/04 06:31:17;;;;;;;;;;;7.50;99.90;;;;;;6154084;23;20366;-85
2022/02/04 06:33:43;;;;;;;;;;;7.50;99.90;;;;;;6200575;23;20294;-83
2022/02/04 06:36:09;;;;;;;;;;;7.50;99.90;;;;;;6176485;23;20388;-85
2022/02/04 06:38:34;;;;;;;;;;;7.50;99.90;;;;;;6154087;23;19962;-85
2022/02/04 06:41:00;;;;;;;;;;;7.50;99.90;;;;;;6151059;23;20238;-86
2022/02/04 06:43:25;;;;;;;;;;;7.50;99.90;;;;;;6173531;23;20001;-84
2022/02/04 06:45:51;;;;;;;;;;;7.50;99.90;;;;;;6203429;23;20443;-86
2022/02/04 06:48:17;;;;;;;;;;;7.50;99.90;;;;;;6179226;23;19916;-86
2022/02/04 06:50:42;;;;;;;;;;;7.50;99.90;;;;;;6152976;23;20207;-86
2022/02/04 06:53:08;;;;;;;;;;;7.50;99.90;;;;;;6154331;23;19978;-85
2022/02/04 06:55:34;;;;;;;;;;;7.50;99.90;;;;;;6153068;23;19991;-85
2022/02/04 06:58:02;;;;;;;;;;;7.50;99.90;;;;;;6187036;23;20526;-83
2022/02/04 07:00:28;;;;;;;;;;;7.50;99.90;;;;;;6152312;23;19916;-85
2022/02/04 07:02:54;;;;;;;;;;;7.50;99.90;;;;;;6167426;23;20017;-84
2022/02/04 07:05:21;;;;;;;;;;;7.50;99.90;;;;;;6172059;23;20222;-84
2022/02/04 07:07:57;;;;;;;;;;;7.50;99.90;;;;;;6169102;23;20315;-84
2022/02/04 07:10:33;;;;;;;;;;;7.50;99.90;;;;;;6151655;23;19943;-83
2022/02/04 07:15:55;;;;;;;;;;;7.50;99.90;;;;;;6156528;23;19950;-85
2022/02/04 07:21:06;;;;;;;;;;;7.50;99.90;;;;;;6176555;23;20361;-87
2022/02/04 07:23:35;;;;;;;;;;;7.50;99.90;;;;;;6200564;23;20128;-83
2022/02/04 07:26:02;;;;;;;;;;;7.50;99.90;;;;;;6174399;23;19916;-86
2022/02/04 07:28:28;;;;;;;;;;;7.50;99.90;;;;;;6175083;23;19931;-81
2022/02/04 07:30:55;;;;;;;;;;;7.50;99.90;;;;;;6196095;23;19974;-82
2022/02/04 07:33:24;;;;;;;;;;;7.50;99.90;;;;;;6173839;23;20168;-82
2022/02/04 07:41:14;;;;;;;;;;;7.50;99.90;;;;;;6195858;23;20214;-86
2022/02/04 07:43:40;;;;;;;;;;;7.50;99.90;;;;;;6172609;23;19916;-85
2022/02/04 07:46:06;;;;;;;;;;;7.60;99.90;;;;;;6173431;23;19920;-84
2022/02/04 07:48:32;;;;;;;;;;;7.50;99.90;;;;;;6172926;23;20253;-86
2022/02/04 07:50:57;;;;;;;;;;;7.60;99.90;;;;;;6201355;23;19919;-84
2022/02/04 07:53:30;;;;;;;;;;;7.60;99.90;;;;;;6201915;23;20293;-85
2022/02/04 07:55:56;;;;;;;;;;;7.60;99.90;;;;;;6148300;23;20283;-83
2022/02/04 07:58:22;;;;;;;;;;;7.60;99.90;;;;;;6149299;23;20236;-84
2022/02/04 08:00:50;;;;;;;;;;;7.60;99.90;;;;;;6177553;23;20424;-86
2022/02/04 08:05:59;;;;;;;;;;;7.60;99.90;;;;;;6174845;23;19927;-83
2022/02/04 08:11:24;;;;;;;;;;;7.60;99.90;;;;;;6199122;23;20034;-85
2022/02/04 08:51:08;;;;;;;;;;;7.90;99.90;;;;;;6181151;23;20249;-89
2022/02/04 08:56:09;;;;;;;;;;;7.90;99.90;;;;;;6200369;23;20345;-85
2022/02/04 08:58:50;;;;;;;;;;;8.00;99.90;;;;;;6154434;23;19982;-85
2022/02/04 09:01:22;;;;;;;;;;;8.00;99.90;;;;;;6177683;23;19916;-84
2022/02/04 09:03:52;;;;;;;;;;;8.00;99.90;;;;;;6150023;23;19923;-85
2022/02/04 09:06:22;;;;;;;;;;;8.00;99.90;;;;;;6175946;23;20129;-83
2022/02/04 09:08:52;;;;;;;;;;;8.10;99.90;;;;;;6177691;23;19924;-85
2022/02/04 09:22:38;;;;;;;;;;;8.20;99.90;;;;;;6174987;23;19920;-83
2022/02/04 09:25:05;;;;;;;;;;;8.20;99.90;;;;;;6181697;23;19922;-84
2022/02/04 09:27:30;;;;;;;;;;;8.20;99.90;;;;;;6179842;23;20286;-86
2022/02/04 09:29:56;;;;;;;;;;;8.20;99.90;;;;;;6154911;23;20512;-88
2022/02/04 09:32:22;;;;;;;;;;;8.30;99.90;;;;;;6160180;22;19973;-87
2022/02/04 09:34:48;;;;;;;;;;;8.30;99.90;;;;;;6162357;23;19943;-88
2022/02/04 09:37:13;;;;;;;;;;;8.30;99.90;;;;;;6166056;23;19923;-84
2022/02/04 09:39:39;;;;;;;;;;;8.30;99.90;;;;;;6185660;23;19962;-86
2022/02/04 09:42:05;;;;;;;;;;;8.30;99.90;;;;;;6185059;23;20195;-85
2022/02/04 09:44:31;;;;;;;;;;;8.40;99.90;;;;;;6183390;23;20061;-85
2022/02/04 09:46:57;;;;;;;;;;;8.40;99.90;;;;;;6158246;23;19981;-83
2022/02/04 09:49:33;;;;;;;;;;;8.40;99.90;;;;;;6207361;23;19931;-87
2022/02/04 10:08:55;;;;;;;;;;;8.50;99.90;;;;;;6212076;23;19915;-85
2022/02/04 10:14:06;;;;;;;;;;;8.60;99.90;;;;;;6210242;23;19915;-84
2022/02/04 10:19:02;;;;;;;;;;;8.60;99.90;;;;;;6181770;23;20281;-86
2022/02/04 10:21:28;;;;;;;;;;;8.60;99.90;;;;;;6176635;23;20255;-88
2022/02/04 10:23:55;;;;;;;;;;;8.60;99.90;;;;;;6158164;23;20257;-87
2022/02/04 10:26:23;;;;;;;;;;;8.60;99.90;;;;;;6183851;23;19916;-84
2022/02/04 10:28:49;;;;;;;;;;;8.70;99.90;;;;;;6209577;23;19951;-86
2022/02/04 10:31:18;;;;;;;;;;;8.70;99.90;;;;;;6182243;23;19919;-86
2022/02/04 10:33:53;;;;;;;;;;;8.70;99.90;;;;;;6171780;23;19916;-85
2022/02/04 10:36:48;;;;;;;;;;;8.80;99.90;;;;;;6177519;23;19924;-87
2022/02/04 10:42:28;;;;;;;;;;;8.80;99.90;;;;;;6204506;23;19956;-88
2022/02/04 10:47:29;;;;;;;;;;;8.90;99.90;;;;;;6179834;23;20361;-83
2022/02/04 10:50:06;;;;;;;;;;;9.00;99.90;;;;;;6178006;23;19920;-85
2022/02/04 11:00:40;;;;;;;;;;;9.10;99.90;;;;;;6201839;23;19920;-85
2022/02/04 11:03:11;;;;;;;;;;;9.20;99.90;;;;;;6153217;23;20345;-86
2022/02/04 11:06:07;;;;;;;;;;;9.20;99.90;;;;;;6154621;23;20608;-86
2022/02/04 11:33:33;;;;;;;;;;;9.20;99.90;;;;;;6189697;23;19922;-88
2022/02/04 11:36:11;;;;;;;;;;;9.20;99.90;;;;;;6233175;23;20288;-82
2022/02/04 11:53:26;;;;;;;;;;;9.60;99.90;;;;;;6205556;23;19947;-86
2022/02/04 11:55:59;;;;;;;;;;;9.70;99.90;;;;;;6186427;23;19998;-83
2022/02/04 11:58:25;;;;;;;;;;;9.70;99.90;;;;;;6160292;23;19939;-86
2022/02/04 12:01:02;;;;;;;;;;;9.80;99.90;;;;;;6184665;23;19923;-86
2022/02/04 12:03:31;;;;;;;;;;;9.80;99.90;;;;;;6187169;23;19916;-88
2022/02/04 12:05:57;;;;;;;;;;;9.70;99.90;;;;;;6187531;23;19947;-86
2022/02/04 12:08:24;;;;;;;;;;;9.80;99.90;;;;;;6186951;23;19923;-84
2022/02/04 12:10:50;;;;;;;;;;;9.70;99.90;;;;;;6188709;23;19919;-85
2022/02/04 12:13:17;;;;;;;;;;;9.70;99.90;;;;;;6162940;23;20019;-84
2022/02/04 12:15:47;;;;;;;;;;;9.70;99.90;;;;;;6187683;23;19916;-83
2022/02/04 12:18:22;;;;;;;;;;;9.70;99.90;;;;;;6211408;23;19966;-83
2022/02/04 12:20:53;;;;;;;;;;;9.70;99.90;;;;;;6189097;23;19986;-86
2022/02/04 12:23:32;;;;;;;;;;;9.60;99.90;;;;;;6183569;23;19920;-89
2022/02/04 12:26:11;;;;;;;;;;;9.70;99.90;;;;;;6190100;23;19947;-86
2022/02/04 12:28:41;;;;;;;;;;;9.60;99.90;;;;;;6184741;23;19915;-88
2022/02/04 12:31:14;;;;;;;;;;;9.60;99.90;;;;;;6184992;23;20345;-84
2022/02/04 12:33:40;;;;;;;;;;;9.60;99.90;;;;;;6182582;23;19925;-87
2022/02/04 12:36:11;;;;;;;;;;;9.60;99.90;;;;;;6185152;23;20277;-87
2022/02/04 12:38:37;;;;;;;;;;;9.50;99.90;;;;;;6182532;23;19920;-85
2022/02/04 12:41:03;;;;;;;;;;;9.50;99.90;;;;;;6156995;23;19969;-83
2022/02/04 12:43:33;;;;;;;;;;;9.50;99.90;;;;;;6157178;23;19926;-89
2022/02/04 12:45:59;;;;;;;;;;;9.40;99.90;;;;;;6186484;23;19930;-84
2022/02/04 12:48:26;;;;;;;;;;;9.40;99.90;;;;;;6158659;23;19920;-86
2022/02/04 12:50:53;;;;;;;;;;;9.30;99.90;;;;;;6181915;23;19924;-86
2022/02/04 12:53:24;;;;;;;;;;;9.30;99.90;;;;;;6183448;23;20458;-87
2022/02/04 12:56:34;;;;;;;;;;;9.20;99.90;;;;;;6210626;23;19923;-87
2022/02/04 13:07:41;;;;;;;;;;;9.30;99.90;;;;;;6210705;23;19923;-85
2022/02/04 13:10:07;;;;;;;;;;;9.30;99.90;;;;;;6181142;23;19923;-82
2022/02/04 13:12:51;;;;;;;;;;;9.20;99.90;;;;;;6181367;23;19926;-86
2022/02/04 13:15:18;;;;;;;;;;;9.20;99.90;;;;;;6180686;23;19955;-83
2022/02/04 13:17:44;;;;;;;;;;;9.10;99.90;;;;;;6185069;23;20367;-85
2022/02/04 13:20:12;;;;;;;;;;;9.00;99.90;;;;;;6182300;23;19919;-85
2022/02/04 13:22:38;;;;;;;;;;;8.90;99.90;;;;;;6179175;23;19921;-88
2022/02/04 13:25:18;;;;;;;;;;;8.90;99.90;;;;;;6209003;23;19990;-86
2022/02/04 13:28:03;;;;;;;;;;;8.90;99.90;;;;;;6209819;23;19994;-85
2022/02/04 13:30:31;;;;;;;;;;;8.80;99.90;;;;;;6182734;23;19958;-84
2022/02/04 13:32:58;;;;;;;;;;;8.60;99.90;;;;;;6184453;23;19938;-89
2022/02/04 13:35:25;;;;;;;;;;;8.40;99.90;;;;;;6182591;23;19969;-86
2022/02/04 13:37:53;;;;;;;;;;;8.30;99.90;;;;;;6207932;23;19919;-87
2022/02/04 13:40:28;;;;;;;;;;;8.20;99.90;;;;;;6164772;23;19962;-86
2022/02/04 13:43:01;;;;;;;;;;;8.10;99.90;;;;;;6162424;23;20443;-89
2022/02/04 13:45:46;;;;;;;;;;;8.00;99.90;;;;;;6158546;23;19916;-85
2022/02/04 13:48:19;;;;;;;;;;;7.90;99.90;;;;;;6162083;23;20021;-86
2022/02/04 13:51:05;;;;;;;;;;;7.90;99.90;;;;;;6157495;23;20029;-88
2022/02/04 13:53:49;;;;;;;;;;;7.80;99.90;;;;;;6180942;23;20001;-84
2022/02/04 13:59:43;;;;;;;;;;;7.70;99.90;;;;;;6189631;23;19926;-85
2022/02/04 14:02:11;;;;;;;;;;;7.60;99.90;;;;;;6183671;23;19960;-84
2022/02/04 14:04:37;;;;;;;;;;;7.60;99.90;;;;;;6180177;23;20308;-84
2022/02/04 14:07:07;;;;;;;;;;;7.50;99.90;;;;;;6160333;23;19951;-89
2022/02/04 14:09:47;;;;;;;;;;;7.50;99.90;;;;;;6185798;23;19951;-89
2022/02/04 14:12:13;;;;;;;;;;;7.40;99.90;;;;;;6162418;23;19995;-86
2022/02/04 14:14:40;;;;;;;;;;;7.40;99.90;;;;;;6189895;23;19990;-88
2022/02/04 14:17:06;;;;;;;;;;;7.10;99.90;;;;;;6164030;23;19951;-91
2022/02/04 14:19:38;;;;;;;;;;;6.70;99.90;;;;;;6189623;23;19977;-89
2022/02/04 14:22:05;;;;;;;;;;;6.40;99.90;;;;;;6159664;23;19916;-91
2022/02/04 14:24:37;;;;;;;;;;;6.00;99.90;;;;;;6184102;23;19930;-89
2022/02/04 14:27:04;;;;;;;;;;;5.80;99.90;;;;;;6186916;23;19963;-88
2022/02/04 14:29:38;;;;;;;;;;;5.60;99.90;;;;;;6159051;23;19947;-87
2022/02/04 14:32:14;;;;;;;;;;;5.40;99.90;;;;;;6158225;23;19991;-88
2022/02/04 14:35:00;;;;;;;;;;;5.20;99.90;;;;;;6161057;23;19920;-87
2022/02/04 14:37:57;;;;;;;;;;;5.20;99.90;;;;;;6163298;23;19956;-92
2022/02/04 14:54:13;;;;;;;;;;;4.30;99.90;;;;;;6182849;23;19963;-89
2022/02/04 15:02:09;;;;;;;;;;;3.90;99.90;;;;;;6182128;23;19920;-85
2022/02/04 15:07:02;;;;;;;;;;;3.50;99.90;;;;;;6180896;23;20340;-88
2022/02/04 15:09:29;;;;;;;;;;;3.40;99.90;;;;;;6158078;23;19916;-87
2022/02/04 15:11:55;;;;;;;;;;;3.30;99.90;;;;;;6153163;23;20169;-86
2022/02/04 15:14:40;;;;;;;;;;;3.20;99.90;;;;;;6180636;23;19961;-90
2022/02/04 15:17:07;;;;;;;;;;;3.10;99.90;;;;;;6182419;23;19995;-88
2022/02/04 15:19:34;;;;;;;;;;;3.00;99.90;;;;;;6157847;23;19971;-88
2022/02/04 15:22:07;;;;;;;;;;;2.90;99.90;;;;;;6156198;23;19990;-85
2022/02/04 15:24:33;;;;;;;;;;;2.80;99.90;;;;;;6183617;23;19915;-84
2022/02/04 15:27:02;;;;;;;;;;;2.70;99.90;;;;;;6155019;23;19935;-84
2022/02/04 15:29:30;;;;;;;;;;;2.70;99.90;;;;;;6180033;23;20018;-84
2022/02/04 15:31:58;;;;;;;;;;;2.70;99.90;;;;;;6180326;23;19926;-85
2022/02/04 15:34:26;;;;;;;;;;;2.60;99.90;;;;;;6156917;23;21469;-86
2022/02/04 15:36:53;;;;;;;;;;;2.60;99.90;;;;;;6180118;23;19942;-84
2022/02/04 15:39:18;;;;;;;;;;;2.70;99.90;;;;;;6177757;23;19915;-85
2022/02/04 15:41:54;;;;;;;;;;;2.70;99.90;;;;;;6179760;23;20386;-86
2022/02/04 15:44:35;;;;;;;;;;;2.70;99.90;;;;;;6177028;23;19924;-87
2022/02/04 15:47:51;;;;;;;;;;;2.70;99.90;;;;;;6181045;23;19920;-86
2022/02/04 16:04:42;;;;;;;;;;;2.80;99.90;;;;;;6170807;23;20335;-86
2022/02/04 16:07:07;;;;;;;;;;;2.90;99.90;;;;;;6177859;23;19939;-87
2022/02/04 16:09:33;;;;;;;;;;;2.90;99.90;;;;;;6153183;23;19973;-86
2022/02/04 16:12:19;;;;;;;;;;;3.00;99.90;;;;;;6149287;23;20243;-85
2022/02/04 16:14:53;;;;;;;;;;;2.90;99.90;;;;;;6154753;23;19926;-87
2022/02/04 16:30:06;;;;;;;;;;;2.90;99.90;;;;;;6177774;23;19924;-85
2022/02/04 16:32:31;;;;;;;;;;;3.00;99.90;;;;;;6177405;23;20356;-87
2022/02/04 16:35:00;;;;;;;;;;;2.90;99.90;;;;;;6175234;23;20007;-87
2022/02/04 16:37:32;;;;;;;;;;;2.90;99.90;;;;;;6179817;23;19920;-86
2022/02/04 16:39:58;;;;;;;;;;;2.90;99.90;;;;;;6153546;23;19919;-87
2022/02/04 16:42:24;;;;;;;;;;;3.00;99.90;;;;;;6177245;23;19951;-89
2022/02/04 16:44:50;;;;;;;;;;;3.00;99.90;;;;;;6156244;23;19923;-88
2022/02/04 16:47:16;;;;;;;;;;;3.00;99.90;;;;;;6175732;23;19916;-86
2022/02/04 16:49:42;;;;;;;;;;;3.00;99.90;;;;;;6181039;23;20001;-86
2022/02/04 16:52:08;;;;;;;;;;;3.00;99.90;;;;;;6180823;23;20288;-87
2022/02/04 16:54:37;;;;;;;;;;;3.00;99.90;;;;;;6153425;23;19942;-87
2022/02/04 16:57:03;;;;;;;;;;;3.00;99.90;;;;;;6157181;23;20118;-90
2022/02/04 16:59:29;;;;;;;;;;;3.10;99.90;;;;;;6158634;23;19923;-89
2022/02/04 17:01:54;;;;;;;;;;;3.10;99.90;;;;;;6180259;23;19946;-88
2022/02/04 17:04:20;;;;;;;;;;;3.10;99.90;;;;;;6202119;23;19915;-86
2022/02/04 17:06:54;;;;;;;;;;;3.10;99.90;;;;;;6177128;23;20380;-87
2022/02/04 17:09:40;;;;;;;;;;;3.10;99.90;;;;;;6181011;23;19927;-88
2022/02/04 17:12:16;;;;;;;;;;;3.10;99.90;;;;;;6180086;23;20305;-86
2022/02/04 17:14:42;;;;;;;;;;;3.00;99.90;;;;;;6179025;23;19916;-88
2022/02/04 17:17:10;;;;;;;;;;;3.00;99.90;;;;;;6180429;23;19923;-87
2022/02/04 17:19:53;;;;;;;;;;;3.10;99.90;;;;;;6157932;23;20264;-91
2022/02/04 17:22:48;;;;;;;;;;;3.10;99.90;;;;;;6161093;23;20290;-88
2022/02/04 17:29:10;;;;;;;;;;;3.10;99.90;;;;;;6211753;23;19919;-88
2022/02/04 17:31:32;;;;;;;;;;;3.10;99.90;;;;;;6204471;23;19963;-90
2022/02/04 17:34:24;;;;;;;;;;;3.20;99.90;;;;;;6177743;23;19966;-91
2022/02/04 17:36:49;;;;;;;;;;;3.20;99.90;;;;;;6171302;23;20354;-91
2022/02/04 17:39:21;;;;;;;;;;;3.30;99.90;;;;;;6183094;23;19951;-89
2022/02/04 17:44:49;;;;;;;;;;;3.20;99.90;;;;;;6186029;23;19969;-90
2022/02/04 17:47:27;;;;;;;;;;;3.30;99.90;;;;;;6163134;23;20520;-88
2022/02/04 17:50:08;;;;;;;;;;;3.20;99.90;;;;;;6182051;23;20221;-88
2022/02/04 17:52:48;;;;;;;;;;;3.20;99.90;;;;;;6181298;23;19987;-87
2022/02/04 17:55:19;;;;;;;;;;;3.10;99.90;;;;;;6184275;23;20006;-86
2022/02/04 18:08:22;;;;;;;;;;;2.70;99.90;;;;;;6183821;23;19953;-89
2022/02/04 18:10:51;;;;;;;;;;;2.60;99.90;;;;;;6181416;23;19958;-89
2022/02/04 18:13:20;;;;;;;;;;;2.60;99.90;;;;;;6180051;23;20265;-88
2022/02/04 18:15:47;;;;;;;;;;;2.50;99.90;;;;;;6184144;23;19951;-88
2022/02/04 18:18:29;;;;;;;;;;;2.50;99.90;;;;;;6207081;23;19916;-88
2022/02/04 18:21:26;;;;;;;;;;;;;;;;;;;;;
2022/02/04 18:25:09;;;;;;;;;;;2.40;99.90;;;;;;6197795;23;20371;-90
2022/02/04 18:27:33;;;;;;;;;;;2.30;99.90;;;;;;6192160;23;19927;-92
2022/02/04 18:30:34;;;;;;;;;;;;;;;;;;;;;
2022/02/04 18:33:05;;;;;;;;;;;2.40;99.90;;;;;;6184887;23;19988;-90
2022/02/04 18:35:49;;;;;;;;;;;2.40;99.90;;;;;;6181216;23;19923;-90
2022/02/04 18:38:55;;;;;;;;;;;2.40;99.90;;;;;;6187289;23;20260;-88
2022/02/04 18:44:29;;;;;;;;;;;2.40;99.90;;;;;;6185881;23;19919;-90
2022/02/04 18:47:22;;;;;;;;;;;2.50;99.90;;;;;;6160632;23;20505;-89
2022/02/04 18:50:26;;;;;;;;;;;2.60;99.90;;;;;;6185080;23;20187;-87
2022/02/04 18:58:18;;;;;;;;;;;2.80;99.90;;;;;;6209526;23;20212;-88
2022/02/04 19:00:49;;;;;;;;;;;2.80;99.90;;;;;;6180529;23;20358;-91
2022/02/04 19:03:39;;;;;;;;;;;2.80;99.90;;;;;;6156881;23;19949;-90
2022/02/04 19:06:40;;;;;;;;;;;2.90;99.90;;;;;;6205941;23;19920;-87
2022/02/04 19:09:07;;;;;;;;;;;2.80;99.90;;;;;;6160930;23;19969;-90
2022/02/04 19:11:38;;;;;;;;;;;2.80;99.90;;;;;;6142130;23;20541;-87
2022/02/04 19:14:29;;;;;;;;;;;2.80;99.90;;;;;;6160501;23;19915;-90
2022/02/04 19:17:11;;;;;;;;;;;2.80;99.90;;;;;;6148106;23;19916;-88
2022/02/04 19:20:21;;;;;;;;;;;;;;;;;;;;;
2022/02/04 19:22:54;;;;;;;;;;;2.80;99.90;;;;;;6068110;23;19951;-91
2022/02/04 19:43:57;;;;;;;;;;;2.70;99.90;;;;;;6201326;22;19931;-90
2022/02/04 20:07:38;;;;;;;;;;;2.60;99.90;;;;;;6140681;23;19932;-88
2022/02/04 20:23:40;;;;;;;;;;;2.50;99.90;;;;;;6136603;23;19927;-88
2022/02/04 20:26:12;;;;;;;;;;;2.60;99.90;;;;;;6088303;23;20281;-89
2022/02/04 20:28:41;;;;;;;;;;;2.50;99.90;;;;;;6110577;23;19920;-88
2022/02/04 20:31:07;;;;;;;;;;;2.60;99.90;;;;;;6087386;23;19931;-88
2022/02/04 20:34:02;;;;;;;;;;;2.60;99.90;;;;;;6133494;23;19921;-89
2022/02/04 20:36:28;;;;;;;;;;;2.60;99.90;;;;;;6133269;23;19971;-88
2022/02/04 20:38:54;;;;;;;;;;;2.70;99.90;;;;;;6108979;23;20241;-90
2022/02/04 20:41:24;;;;;;;;;;;2.70;99.90;;;;;;6083979;23;20409;-88
2022/02/04 20:44:17;;;;;;;;;;;2.70;99.90;;;;;;6111842;23;19921;-92
2022/02/04 20:46:47;;;;;;;;;;;2.70;99.90;;;;;;6088007;23;19927;-88
2022/02/04 20:49:13;;;;;;;;;;;2.80;99.90;;;;;;6066677;23;20240;-88
2022/02/04 20:51:38;;;;;;;;;;;2.90;99.90;;;;;;6074714;23;20285;-90
2022/02/04 20:54:04;;;;;;;;;;;2.90;99.90;;;;;;6112445;23;20437;-87
2022/02/04 20:57:08;;;;;;;;;;;3.00;99.90;;;;;;6117551;23;20002;-90
2022/02/04 21:00:11;;;;;;;;;;;3.00;99.90;;;;;;6107172;23;19935;-88
2022/02/04 21:02:36;;;;;;;;;;;3.00;99.90;;;;;;6131694;23;20004;-89
2022/02/04 21:05:03;;;;;;;;;;;3.10;99.90;;;;;;6136850;23;20193;-90
2022/02/04 21:07:51;;;;;;;;;;;3.10;99.90;;;;;;6117148;23;19928;-89
2022/02/04 21:15:43;;;;;;;;;;;3.10;99.90;;;;;;6122903;23;19921;-88
2022/02/04 21:18:11;;;;;;;;;;;3.10;99.90;;;;;;6116925;23;19916;-88
2022/02/04 21:20:45;;;;;;;;;;;3.10;99.90;;;;;;6119986;23;19932;-88
2022/02/04 21:23:10;;;;;;;;;;;3.00;99.90;;;;;;6118308;23;20052;-90
2022/02/04 21:25:40;;;;;;;;;;;3.10;99.90;;;;;;6092730;23;19971;-88
2022/02/04 21:28:10;;;;;;;;;;;3.10;99.90;;;;;;6120253;23;19924;-88
2022/02/04 21:30:46;;;;;;;;;;;3.10;99.90;;;;;;6117808;23;19925;-88
2022/02/04 21:38:55;;;;;;;;;;;3.20;99.90;;;;;;6209187;23;19920;-90
2022/02/04 21:41:27;;;;;;;;;;;3.20;99.90;;;;;;6182983;23;19951;-88
2022/02/04 21:44:33;;;;;;;;;;;3.20;99.90;;;;;;6206988;23;19977;-87
2022/02/04 21:47:01;;;;;;;;;;;3.20;99.90;;;;;;6156018;23;19919;-88
2022/02/04 21:49:34;;;;;;;;;;;3.20;99.90;;;;;;6181770;23;19919;-86
2022/02/04 21:52:00;;;;;;;;;;;3.20;99.90;;;;;;6180486;23;19971;-87
2022/02/04 21:54:29;;;;;;;;;;;3.30;99.90;;;;;;6185976;23;20007;-85
2022/02/04 21:56:55;;;;;;;;;;;3.40;99.90;;;;;;6186193;23;19916;-87
2022/02/04 21:59:24;;;;;;;;;;;3.30;99.90;;;;;;6161364;23;19916;-87
2022/02/04 22:01:53;;;;;;;;;;;3.30;99.90;;;;;;6187482;23;19959;-87
2022/02/04 22:04:18;;;;;;;;;;;3.30;99.90;;;;;;6211999;23;20336;-87
2022/02/04 22:06:56;;;;;;;;;;;3.30;99.90;;;;;;6187345;23;19920;-88
2022/02/04 22:09:45;;;;;;;;;;;3.40;99.90;;;;;;6186924;23;19924;-88
2022/02/04 22:22:47;;;;;;;;;;;3.40;99.90;;;;;;6189171;23;19927;-89
2022/02/04 22:25:14;;;;;;;;;;;3.40;99.90;;;;;;6189040;23;19919;-90
2022/02/04 22:27:53;;;;;;;;;;;3.40;99.90;;;;;;6210419;23;19916;-88
2022/02/04 22:30:23;;;;;;;;;;;3.40;99.90;;;;;;6211329;23;19962;-87
2022/02/04 22:33:06;;;;;;;;;;;3.40;99.90;;;;;;6181390;23;20329;-89